Terminal Aerodrome Forecast
Issued by NWS Dodge City, KS

Home | Current Version | Previous Version | Graphics & Text | Print | Product List | Glossary Off
Versions: 1 2 3 4 5 6 7 8 9 10 11 12 13 14 15 16 17 18 19 20 21 22 23 24 25 26 27

000
FTUS43 KDDC 251439 AAB
TAFDDC
TAF AMD
KDDC 251439Z 2515/2612 VRB05KT 2SM -RA BR OVC006
      TEMPO 2515/2517 OVC003
     FM251700 36010KT P6SM VCSH BKN020
     FM260200 01011KT P6SM BKN007=

USA.gov is the U.S. government's official web portal to all federal, state and local government web resources and services.